sensor_id;sensor_type;location;lat;lon;timestamp;temperature;humidity
15288;DHT22;7745;48.708;9.026;2022-10-04T00:01:02;6.70;99.90
15288;DHT22;7745;48.708;9.026;2022-10-04T00:03:33;6.70;99.90
15288;DHT22;7745;48.708;9.026;2022-10-04T00:06:02;6.70;99.90
15288;DHT22;7745;48.708;9.026;2022-10-04T00:08:35;6.60;99.90
15288;DHT22;7745;48.708;9.026;2022-10-04T00:11:06;7.10;99.90
15288;DHT22;7745;48.708;9.026;2022-10-04T00:13:35;6.80;99.90
15288;DHT22;7745;48.708;9.026;2022-10-04T00:16:05;6.80;99.90
15288;DHT22;7745;48.708;9.026;2022-10-04T00:18:37;6.60;99.90
15288;DHT22;7745;48.708;9.026;2022-10-04T00:21:05;6.50;99.90
15288;DHT22;7745;48.708;9.026;2022-10-04T00:23:46;6.50;99.90
15288;DHT22;7745;48.708;9.026;2022-10-04T00:29:29;6.50;99.90
15288;DHT22;7745;48.708;9.026;2022-10-04T00:32:28;6.50;99.90
15288;DHT22;7745;48.708;9.026;2022-10-04T00:34:56;6.40;99.90
15288;DHT22;7745;48.708;9.026;2022-10-04T00:37:25;6.40;99.90
15288;DHT22;7745;48.708;9.026;2022-10-04T00:40:07;6.40;99.90
15288;DHT22;7745;48.708;9.026;2022-10-04T00:42:42;6.30;99.90
15288;DHT22;7745;48.708;9.026;2022-10-04T00:45:15;6.30;99.90
15288;DHT22;7745;48.708;9.026;2022-10-04T00:48:02;6.40;99.90
15288;DHT22;7745;48.708;9.026;2022-10-04T00:50:33;6.30;99.90
15288;DHT22;7745;48.708;9.026;2022-10-04T00:53:11;6.30;99.90
15288;DHT22;7745;48.708;9.026;2022-10-04T00:55:43;6.30;99.90
15288;DHT22;7745;48.708;9.026;2022-10-04T00:58:16;6.30;99.90
15288;DHT22;7745;48.708;9.026;2022-10-04T01:00:46;6.30;99.90
15288;DHT22;7745;48.708;9.026;2022-10-04T01:03:20;6.20;99.90
15288;DHT22;7745;48.708;9.026;2022-10-04T01:05:51;6.20;99.90
15288;DHT22;7745;48.708;9.026;2022-10-04T01:08:24;6.20;99.90
15288;DHT22;7745;48.708;9.026;2022-10-04T01:10:55;6.20;99.90
15288;DHT22;7745;48.708;9.026;2022-10-04T01:13:28;6.20;99.90
15288;DHT22;7745;48.708;9.026;2022-10-04T01:15:58;6.20;99.90
15288;DHT22;7745;48.708;9.026;2022-10-04T01:18:30;6.20;99.90
15288;DHT22;7745;48.708;9.026;2022-10-04T01:21:02;6.20;99.90
15288;DHT22;7745;48.708;9.026;2022-10-04T01:23:33;6.60;99.90
15288;DHT22;7745;48.708;9.026;2022-10-04T01:26:00;6.10;99.90
15288;DHT22;7745;48.708;9.026;2022-10-04T01:28:28;6.10;99.90
15288;DHT22;7745;48.708;9.026;2022-10-04T01:30:55;6.10;99.90
15288;DHT22;7745;48.708;9.026;2022-10-04T01:33:22;6.10;99.90
15288;DHT22;7745;48.708;9.026;2022-10-04T01:35:49;6.10;99.90
15288;DHT22;7745;48.708;9.026;2022-10-04T01:38:16;6.10;99.90
15288;DHT22;7745;48.708;9.026;2022-10-04T01:40:54;6.00;99.90
15288;DHT22;7745;48.708;9.026;2022-10-04T01:43:28;6.00;99.90
15288;DHT22;7745;48.708;9.026;2022-10-04T01:45:59;6.00;99.90
15288;DHT22;7745;48.708;9.026;2022-10-04T01:48:32;5.90;99.90
15288;DHT22;7745;48.708;9.026;2022-10-04T01:51:05;5.90;99.90
15288;DHT22;7745;48.708;9.026;2022-10-04T01:53:39;5.90;99.90
15288;DHT22;7745;48.708;9.026;2022-10-04T01:56:11;5.90;99.90
15288;DHT22;7745;48.708;9.026;2022-10-04T01:58:42;5.90;99.90
15288;DHT22;7745;48.708;9.026;2022-10-04T02:01:12;5.90;99.90
15288;DHT22;7745;48.708;9.026;2022-10-04T02:03:44;5.90;99.90
15288;DHT22;7745;48.708;9.026;2022-10-04T02:06:17;5.90;99.90
15288;DHT22;7745;48.708;9.026;2022-10-04T02:08:47;5.90;99.90
15288;DHT22;7745;48.708;9.026;2022-10-04T02:11:18;5.90;99.90
15288;DHT22;7745;48.708;9.026;2022-10-04T02:13:48;5.90;99.90
15288;DHT22;7745;48.708;9.026;2022-10-04T02:16:16;5.90;99.90
15288;DHT22;7745;48.708;9.026;2022-10-04T02:18:44;5.80;99.90
15288;DHT22;7745;48.708;9.026;2022-10-04T02:21:13;5.70;99.90
15288;DHT22;7745;48.708;9.026;2022-10-04T02:23:41;5.70;99.90
15288;DHT22;7745;48.708;9.026;2022-10-04T02:26:10;5.80;99.90
15288;DHT22;7745;48.708;9.026;2022-10-04T02:28:38;5.70;99.90
15288;DHT22;7745;48.708;9.026;2022-10-04T02:31:06;5.70;99.90
15288;DHT22;7745;48.708;9.026;2022-10-04T02:33:52;5.70;99.90
15288;DHT22;7745;48.708;9.026;2022-10-04T02:36:24;5.70;99.90
15288;DHT22;7745;48.708;9.026;2022-10-04T02:38:56;5.60;99.90
15288;DHT22;7745;48.708;9.026;2022-10-04T02:41:28;5.70;99.90
15288;DHT22;7745;48.708;9.026;2022-10-04T02:44:01;5.60;99.90
15288;DHT22;7745;48.708;9.026;2022-10-04T02:46:31;5.80;99.90
15288;DHT22;7745;48.708;9.026;2022-10-04T02:49:00;5.60;99.90
15288;DHT22;7745;48.708;9.026;2022-10-04T02:51:32;5.60;99.90
15288;DHT22;7745;48.708;9.026;2022-10-04T02:54:09;6.10;99.90
15288;DHT22;7745;48.708;9.026;2022-10-04T02:56:41;5.70;99.90
15288;DHT22;7745;48.708;9.026;2022-10-04T02:59:15;5.40;99.90
15288;DHT22;7745;48.708;9.026;2022-10-04T03:01:48;5.50;99.90
15288;DHT22;7745;48.708;9.026;2022-10-04T03:04:16;5.50;99.90
15288;DHT22;7745;48.708;9.026;2022-10-04T03:06:46;5.50;99.90
15288;DHT22;7745;48.708;9.026;2022-10-04T03:09:13;5.50;99.90
15288;DHT22;7745;48.708;9.026;2022-10-04T03:11:41;5.50;99.90
15288;DHT22;7745;48.708;9.026;2022-10-04T03:14:13;5.50;99.90
15288;DHT22;7745;48.708;9.026;2022-10-04T03:16:43;5.50;99.90
15288;DHT22;7745;48.708;9.026;2022-10-04T03:19:12;5.50;99.90
15288;DHT22;7745;48.708;9.026;2022-10-04T03:21:43;5.50;99.90
15288;DHT22;7745;48.708;9.026;2022-10-04T03:24:15;5.50;99.90
15288;DHT22;7745;48.708;9.026;2022-10-04T03:26:45;5.50;99.90
15288;DHT22;7745;48.708;9.026;2022-10-04T03:29:15;5.50;99.90
15288;DHT22;7745;48.708;9.026;2022-10-04T03:31:45;5.50;99.90
15288;DHT22;7745;48.708;9.026;2022-10-04T03:34:14;5.60;99.90
15288;DHT22;7745;48.708;9.026;2022-10-04T03:36:42;5.60;99.90
15288;DHT22;7745;48.708;9.026;2022-10-04T03:39:10;5.50;99.90
15288;DHT22;7745;48.708;9.026;2022-10-04T03:41:38;5.60;99.90
15288;DHT22;7745;48.708;9.026;2022-10-04T03:44:06;5.60;99.90
15288;DHT22;7745;48.708;9.026;2022-10-04T03:46:39;5.60;99.90
15288;DHT22;7745;48.708;9.026;2022-10-04T03:49:07;5.50;99.90
15288;DHT22;7745;48.708;9.026;2022-10-04T03:51:34;5.50;99.90
15288;DHT22;7745;48.708;9.026;2022-10-04T03:54:01;5.50;99.90
15288;DHT22;7745;48.708;9.026;2022-10-04T03:56:32;5.60;99.90
15288;DHT22;7745;48.708;9.026;2022-10-04T03:59:02;5.60;99.90
15288;DHT22;7745;48.708;9.026;2022-10-04T04:01:36;5.60;99.90
15288;DHT22;7745;48.708;9.026;2022-10-04T04:04:15;5.50;99.90
15288;DHT22;7745;48.708;9.026;2022-10-04T04:06:51;5.50;99.90
15288;DHT22;7745;48.708;9.026;2022-10-04T04:09:22;5.50;99.90
15288;DHT22;7745;48.708;9.026;2022-10-04T04:11:53;5.50;99.90
15288;DHT22;7745;48.708;9.026;2022-10-04T04:14:24;5.50;99.90
15288;DHT22;7745;48.708;9.026;2022-10-04T04:16:52;5.50;99.90
15288;DHT22;7745;48.708;9.026;2022-10-04T04:19:23;5.50;99.90
15288;DHT22;7745;48.708;9.026;2022-10-04T04:21:52;5.50;99.90
15288;DHT22;7745;48.708;9.026;2022-10-04T04:24:23;5.50;99.90
15288;DHT22;7745;48.708;9.026;2022-10-04T04:26:55;5.90;99.90
15288;DHT22;7745;48.708;9.026;2022-10-04T04:29:25;5.50;99.90
15288;DHT22;7745;48.708;9.026;2022-10-04T04:31:58;5.50;99.90
15288;DHT22;7745;48.708;9.026;2022-10-04T04:34:29;5.90;99.90
15288;DHT22;7745;48.708;9.026;2022-10-04T04:36:58;5.60;99.90
15288;DHT22;7745;48.708;9.026;2022-10-04T04:39:26;5.90;99.90
15288;DHT22;7745;48.708;9.026;2022-10-04T04:42:12;5.50;99.90
15288;DHT22;7745;48.708;9.026;2022-10-04T04:44:46;5.50;99.90
15288;DHT22;7745;48.708;9.026;2022-10-04T04:47:25;5.40;99.90
15288;DHT22;7745;48.708;9.026;2022-10-04T04:49:55;5.40;99.90
15288;DHT22;7745;48.708;9.026;2022-10-04T04:52:25;5.50;99.90
15288;DHT22;7745;48.708;9.026;2022-10-04T04:54:53;5.40;99.90
15288;DHT22;7745;48.708;9.026;2022-10-04T04:57:20;5.40;99.90
15288;DHT22;7745;48.708;9.026;2022-10-04T04:59:52;5.50;99.90
15288;DHT22;7745;48.708;9.026;2022-10-04T05:02:28;5.80;99.90
15288;DHT22;7745;48.708;9.026;2022-10-04T05:05:18;5.50;99.90
15288;DHT22;7745;48.708;9.026;2022-10-04T05:07:46;5.50;99.90
15288;DHT22;7745;48.708;9.026;2022-10-04T05:10:24;5.60;99.90
15288;DHT22;7745;48.708;9.026;2022-10-04T05:12:53;5.50;99.90
15288;DHT22;7745;48.708;9.026;2022-10-04T05:15:21;5.50;99.90
15288;DHT22;7745;48.708;9.026;2022-10-04T05:17:48;5.60;99.90
15288;DHT22;7745;48.708;9.026;2022-10-04T05:20:17;5.50;99.90
15288;DHT22;7745;48.708;9.026;2022-10-04T05:22:46;5.80;99.90
15288;DHT22;7745;48.708;9.026;2022-10-04T05:25:20;5.80;99.90
15288;DHT22;7745;48.708;9.026;2022-10-04T05:27:49;6.00;99.90
15288;DHT22;7745;48.708;9.026;2022-10-04T05:30:36;5.50;99.90
15288;DHT22;7745;48.708;9.026;2022-10-04T05:33:07;5.50;99.90
15288;DHT22;7745;48.708;9.026;2022-10-04T05:35:59;5.50;99.90
15288;DHT22;7745;48.708;9.026;2022-10-04T05:38:32;5.70;99.90
15288;DHT22;7745;48.708;9.026;2022-10-04T05:41:07;5.50;99.90
15288;DHT22;7745;48.708;9.026;2022-10-04T05:43:36;5.70;99.90
15288;DHT22;7745;48.708;9.026;2022-10-04T05:46:22;5.60;99.90
15288;DHT22;7745;48.708;9.026;2022-10-04T05:48:54;5.60;99.90
15288;DHT22;7745;48.708;9.026;2022-10-04T05:51:25;5.60;99.90
15288;DHT22;7745;48.708;9.026;2022-10-04T05:53:53;5.70;99.90
15288;DHT22;7745;48.708;9.026;2022-10-04T05:59:34;5.70;99.90
15288;DHT22;7745;48.708;9.026;2022-10-04T06:02:11;5.80;99.90
15288;DHT22;7745;48.708;9.026;2022-10-04T06:04:48;5.80;99.90
15288;DHT22;7745;48.708;9.026;2022-10-04T06:07:25;5.90;99.90
15288;DHT22;7745;48.708;9.026;2022-10-04T06:10:24;5.90;99.90
15288;DHT22;7745;48.708;9.026;2022-10-04T06:12:56;5.90;99.90
15288;DHT22;7745;48.708;9.026;2022-10-04T06:15:39;6.00;99.90
15288;DHT22;7745;48.708;9.026;2022-10-04T06:18:21;6.00;99.90
15288;DHT22;7745;48.708;9.026;2022-10-04T06:21:08;6.00;99.90
15288;DHT22;7745;48.708;9.026;2022-10-04T06:23:47;6.10;99.90
15288;DHT22;7745;48.708;9.026;2022-10-04T06:26:20;6.10;99.90
15288;DHT22;7745;48.708;9.026;2022-10-04T06:28:52;6.20;99.90
15288;DHT22;7745;48.708;9.026;2022-10-04T06:31:49;6.30;99.90
15288;DHT22;7745;48.708;9.026;2022-10-04T06:37:24;6.40;99.90
15288;DHT22;7745;48.708;9.026;2022-10-04T06:40:18;6.50;99.90
15288;DHT22;7745;48.708;9.026;2022-10-04T06:43:02;6.60;99.90
15288;DHT22;7745;48.708;9.026;2022-10-04T06:45:48;6.60;99.90
15288;DHT22;7745;48.708;9.026;2022-10-04T06:51:40;6.90;99.90
15288;DHT22;7745;48.708;9.026;2022-10-04T06:54:21;7.00;99.90
15288;DHT22;7745;48.708;9.026;2022-10-04T06:57:13;7.00;99.90
15288;DHT22;7745;48.708;9.026;2022-10-04T06:59:56;7.20;99.90
15288;DHT22;7745;48.708;9.026;2022-10-04T07:02:27;7.20;99.90
15288;DHT22;7745;48.708;9.026;2022-10-04T07:04:59;7.40;99.90
15288;DHT22;7745;48.708;9.026;2022-10-04T07:07:31;7.50;99.90
15288;DHT22;7745;48.708;9.026;2022-10-04T07:10:19;7.60;99.90
15288;DHT22;7745;48.708;9.026;2022-10-04T07:12:58;7.70;99.90
15288;DHT22;7745;48.708;9.026;2022-10-04T07:15:28;7.90;99.90
15288;DHT22;7745;48.708;9.026;2022-10-04T07:17:58;7.90;99.90
15288;DHT22;7745;48.708;9.026;2022-10-04T07:20:31;8.00;99.90
15288;DHT22;7745;48.708;9.026;2022-10-04T07:23:02;8.00;99.90
15288;DHT22;7745;48.708;9.026;2022-10-04T07:25:33;8.10;99.90
15288;DHT22;7745;48.708;9.026;2022-10-04T07:28:10;8.20;99.90
15288;DHT22;7745;48.708;9.026;2022-10-04T07:31:12;8.30;99.90
15288;DHT22;7745;48.708;9.026;2022-10-04T07:33:43;8.30;99.90
15288;DHT22;7745;48.708;9.026;2022-10-04T07:36:12;8.40;99.90
15288;DHT22;7745;48.708;9.026;2022-10-04T07:38:46;8.50;99.90
15288;DHT22;7745;48.708;9.026;2022-10-04T07:41:20;8.70;99.90
15288;DHT22;7745;48.708;9.026;2022-10-04T07:43:51;8.70;99.90
15288;DHT22;7745;48.708;9.026;2022-10-04T07:46:30;8.80;99.90
15288;DHT22;7745;48.708;9.026;2022-10-04T07:48:58;8.90;99.90
15288;DHT22;7745;48.708;9.026;2022-10-04T07:51:30;9.00;99.90
15288;DHT22;7745;48.708;9.026;2022-10-04T07:54:02;9.00;99.90
15288;DHT22;7745;48.708;9.026;2022-10-04T07:56:35;9.20;99.90
15288;DHT22;7745;48.708;9.026;2022-10-04T07:59:21;9.20;99.90
15288;DHT22;7745;48.708;9.026;2022-10-04T08:01:58;9.30;99.90
15288;DHT22;7745;48.708;9.026;2022-10-04T08:04:36;9.30;99.90
15288;DHT22;7745;48.708;9.026;2022-10-04T08:07:14;9.50;99.90
15288;DHT22;7745;48.708;9.026;2022-10-04T08:09:50;9.40;99.90
15288;DHT22;7745;48.708;9.026;2022-10-04T08:12:22;9.50;99.90
15288;DHT22;7745;48.708;9.026;2022-10-04T08:15:02;9.60;99.90
15288;DHT22;7745;48.708;9.026;2022-10-04T08:17:44;9.70;99.90
15288;DHT22;7745;48.708;9.026;2022-10-04T08:20:25;9.70;99.90
15288;DHT22;7745;48.708;9.026;2022-10-04T08:23:13;9.80;99.90
15288;DHT22;7745;48.708;9.026;2022-10-04T08:25:51;9.90;99.90
15288;DHT22;7745;48.708;9.026;2022-10-04T08:28:28;10.20;99.90
15288;DHT22;7745;48.708;9.026;2022-10-04T08:31:26;10.20;99.90
15288;DHT22;7745;48.708;9.026;2022-10-04T08:34:23;10.20;99.90
15288;DHT22;7745;48.708;9.026;2022-10-04T08:37:03;10.10;99.90
15288;DHT22;7745;48.708;9.026;2022-10-04T08:39:55;10.20;99.90
15288;DHT22;7745;48.708;9.026;2022-10-04T08:42:49;10.20;99.90
15288;DHT22;7745;48.708;9.026;2022-10-04T08:45:50;10.20;99.90
15288;DHT22;7745;48.708;9.026;2022-10-04T08:52:18;10.40;99.90
15288;DHT22;7745;48.708;9.026;2022-10-04T08:55:32;10.50;99.90
15288;DHT22;7745;48.708;9.026;2022-10-04T08:58:13;10.60;99.90
15288;DHT22;7745;48.708;9.026;2022-10-04T09:00:59;10.70;99.90
15288;DHT22;7745;48.708;9.026;2022-10-04T09:03:55;10.80;99.90
15288;DHT22;7745;48.708;9.026;2022-10-04T09:06:42;10.90;99.90
15288;DHT22;7745;48.708;9.026;2022-10-04T09:09:51;11.00;99.90
15288;DHT22;7745;48.708;9.026;2022-10-04T09:12:39;11.00;99.90
15288;DHT22;7745;48.708;9.026;2022-10-04T09:15:21;11.20;99.90
15288;DHT22;7745;48.708;9.026;2022-10-04T09:17:54;11.40;99.90
15288;DHT22;7745;48.708;9.026;2022-10-04T09:20:39;11.50;99.90
15288;DHT22;7745;48.708;9.026;2022-10-04T09:23:20;11.70;99.90
15288;DHT22;7745;48.708;9.026;2022-10-04T09:25:58;11.80;99.90
15288;DHT22;7745;48.708;9.026;2022-10-04T09:28:58;11.90;99.90
15288;DHT22;7745;48.708;9.026;2022-10-04T09:31:49;12.10;99.90
15288;DHT22;7745;48.708;9.026;2022-10-04T09:34:31;12.20;99.90
15288;DHT22;7745;48.708;9.026;2022-10-04T09:43:15;12.40;99.90
15288;DHT22;7745;48.708;9.026;2022-10-04T09:46:08;12.40;99.90
15288;DHT22;7745;48.708;9.026;2022-10-04T09:48:49;12.50;99.90
15288;DHT22;7745;48.708;9.026;2022-10-04T09:51:35;12.80;99.90
15288;DHT22;7745;48.708;9.026;2022-10-04T09:54:20;12.70;99.90
15288;DHT22;7745;48.708;9.026;2022-10-04T09:57:13;12.80;99.90
15288;DHT22;7745;48.708;9.026;2022-10-04T09:59:56;12.90;99.90
15288;DHT22;7745;48.708;9.026;2022-10-04T10:05:43;13.10;99.90
15288;DHT22;7745;48.708;9.026;2022-10-04T10:08:17;13.10;99.90
15288;DHT22;7745;48.708;9.026;2022-10-04T10:10:59;13.20;99.90
15288;DHT22;7745;48.708;9.026;2022-10-04T10:14:30;13.30;99.90
15288;DHT22;7745;48.708;9.026;2022-10-04T10:17:08;13.20;99.90
15288;DHT22;7745;48.708;9.026;2022-10-04T10:25:44;13.30;99.90
15288;DHT22;7745;48.708;9.026;2022-10-04T10:28:27;13.40;99.90
15288;DHT22;7745;48.708;9.026;2022-10-04T10:31:09;13.50;99.90
15288;DHT22;7745;48.708;9.026;2022-10-04T10:34:12;13.50;99.90
15288;DHT22;7745;48.708;9.026;2022-10-04T10:42:58;13.70;99.90
15288;DHT22;7745;48.708;9.026;2022-10-04T10:45:39;13.80;99.90
15288;DHT22;7745;48.708;9.026;2022-10-04T10:48:13;13.90;99.90
15288;DHT22;7745;48.708;9.026;2022-10-04T10:51:00;14.00;99.90
15288;DHT22;7745;48.708;9.026;2022-10-04T10:53:48;14.00;99.90
15288;DHT22;7745;48.708;9.026;2022-10-04T11:02:54;14.10;99.90
15288;DHT22;7745;48.708;9.026;2022-10-04T11:05:51;14.20;99.90
15288;DHT22;7745;48.708;9.026;2022-10-04T11:11:47;14.50;99.90
15288;DHT22;7745;48.708;9.026;2022-10-04T11:14:46;14.50;99.90
15288;DHT22;7745;48.708;9.026;2022-10-04T11:17:33;14.50;99.90
15288;DHT22;7745;48.708;9.026;2022-10-04T11:20:31;14.60;99.90
15288;DHT22;7745;48.708;9.026;2022-10-04T11:29:30;14.60;99.90
15288;DHT22;7745;48.708;9.026;2022-10-04T11:39:07;14.70;99.90
15288;DHT22;7745;48.708;9.026;2022-10-04T11:41:48;14.80;99.90
15288;DHT22;7745;48.708;9.026;2022-10-04T11:44:45;15.10;99.90
15288;DHT22;7745;48.708;9.026;2022-10-04T11:47:40;15.00;99.90
15288;DHT22;7745;48.708;9.026;2022-10-04T11:50:36;15.10;99.90
15288;DHT22;7745;48.708;9.026;2022-10-04T11:56:29;15.10;99.90
15288;DHT22;7745;48.708;9.026;2022-10-04T11:59:19;15.10;99.90
15288;DHT22;7745;48.708;9.026;2022-10-04T12:05:36;15.20;99.90
15288;DHT22;7745;48.708;9.026;2022-10-04T12:08:27;15.30;99.90
15288;DHT22;7745;48.708;9.026;2022-10-04T12:14:22;15.20;99.90
15288;DHT22;7745;48.708;9.026;2022-10-04T12:17:21;15.30;99.90
15288;DHT22;7745;48.708;9.026;2022-10-04T12:20:20;15.50;99.90
15288;DHT22;7745;48.708;9.026;2022-10-04T12:23:20;15.50;99.90
15288;DHT22;7745;48.708;9.026;2022-10-04T12:26:16;15.60;99.90
15288;DHT22;7745;48.708;9.026;2022-10-04T12:32:03;15.70;99.90
15288;DHT22;7745;48.708;9.026;2022-10-04T12:34:35;15.90;99.90
15288;DHT22;7745;48.708;9.026;2022-10-04T12:37:16;15.80;99.90
15288;DHT22;7745;48.708;9.026;2022-10-04T12:42:52;15.80;99.90
15288;DHT22;7745;48.708;9.026;2022-10-04T12:48:26;15.70;99.90
15288;DHT22;7745;48.708;9.026;2022-10-04T12:51:02;15.90;99.90
15288;DHT22;7745;48.708;9.026;2022-10-04T12:53:40;15.90;99.90
15288;DHT22;7745;48.708;9.026;2022-10-04T12:56:20;15.90;99.90
15288;DHT22;7745;48.708;9.026;2022-10-04T12:59:14;15.80;99.90
15288;DHT22;7745;48.708;9.026;2022-10-04T13:01:52;15.80;99.90
15288;DHT22;7745;48.708;9.026;2022-10-04T13:04:28;15.80;99.90
15288;DHT22;7745;48.708;9.026;2022-10-04T13:07:12;16.00;99.90
15288;DHT22;7745;48.708;9.026;2022-10-04T13:09:48;16.00;99.90
15288;DHT22;7745;48.708;9.026;2022-10-04T13:12:26;15.80;99.90
15288;DHT22;7745;48.708;9.026;2022-10-04T13:15:20;16.10;99.90
15288;DHT22;7745;48.708;9.026;2022-10-04T13:17:56;16.10;99.90
15288;DHT22;7745;48.708;9.026;2022-10-04T13:20:40;16.00;99.90
15288;DHT22;7745;48.708;9.026;2022-10-04T13:23:20;16.10;99.90
15288;DHT22;7745;48.708;9.026;2022-10-04T13:26:11;16.10;99.90
15288;DHT22;7745;48.708;9.026;2022-10-04T13:28:48;16.00;99.90
15288;DHT22;7745;48.708;9.026;2022-10-04T13:31:21;16.00;99.90
15288;DHT22;7745;48.708;9.026;2022-10-04T13:33:57;16.00;99.90
15288;DHT22;7745;48.708;9.026;2022-10-04T13:36:40;16.10;99.90
15288;DHT22;7745;48.708;9.026;2022-10-04T13:42:28;16.30;99.90
15288;DHT22;7745;48.708;9.026;2022-10-04T13:48:24;16.30;99.90
15288;DHT22;7745;48.708;9.026;2022-10-04T13:51:01;16.40;99.90
15288;DHT22;7745;48.708;9.026;2022-10-04T13:53:36;16.40;99.90
15288;DHT22;7745;48.708;9.026;2022-10-04T13:56:56;16.40;99.90
15288;DHT22;7745;48.708;9.026;2022-10-04T13:59:32;16.40;99.90
15288;DHT22;7745;48.708;9.026;2022-10-04T14:08:42;16.40;99.90
15288;DHT22;7745;48.708;9.026;2022-10-04T14:24:21;16.60;99.90
15288;DHT22;7745;48.708;9.026;2022-10-04T14:30:12;16.50;99.90
15288;DHT22;7745;48.708;9.026;2022-10-04T14:35:48;16.60;99.90
15288;DHT22;7745;48.708;9.026;2022-10-04T14:38:35;16.60;99.90
15288;DHT22;7745;48.708;9.026;2022-10-04T14:41:27;16.70;99.90
15288;DHT22;7745;48.708;9.026;2022-10-04T14:47:10;16.70;99.90
15288;DHT22;7745;48.708;9.026;2022-10-04T14:49:51;16.70;99.90
15288;DHT22;7745;48.708;9.026;2022-10-04T14:52:34;16.70;99.90
15288;DHT22;7745;48.708;9.026;2022-10-04T14:55:13;16.70;99.90
15288;DHT22;7745;48.708;9.026;2022-10-04T14:57:54;16.70;99.90
15288;DHT22;7745;48.708;9.026;2022-10-04T15:00:31;16.70;99.90
15288;DHT22;7745;48.708;9.026;2022-10-04T15:03:18;16.80;99.90
15288;DHT22;7745;48.708;9.026;2022-10-04T15:06:23;16.70;99.90
15288;DHT22;7745;48.708;9.026;2022-10-04T15:09:04;16.80;99.90
15288;DHT22;7745;48.708;9.026;2022-10-04T15:11:43;16.80;99.90
15288;DHT22;7745;48.708;9.026;2022-10-04T15:14:35;16.70;99.90
15288;DHT22;7745;48.708;9.026;2022-10-04T15:17:07;16.70;99.90
15288;DHT22;7745;48.708;9.026;2022-10-04T15:19:59;16.80;99.90
15288;DHT22;7745;48.708;9.026;2022-10-04T15:22:30;16.80;99.90
15288;DHT22;7745;48.708;9.026;2022-10-04T15:25:40;16.70;99.90
15288;DHT22;7745;48.708;9.026;2022-10-04T15:28:28;16.60;99.90
15288;DHT22;7745;48.708;9.026;2022-10-04T15:31:05;16.70;99.90
15288;DHT22;7745;48.708;9.026;2022-10-04T15:33:42;16.60;99.90
15288;DHT22;7745;48.708;9.026;2022-10-04T15:36:30;16.60;99.90
15288;DHT22;7745;48.708;9.026;2022-10-04T15:39:07;16.60;99.90
15288;DHT22;7745;48.708;9.026;2022-10-04T15:41:54;16.60;99.90
15288;DHT22;7745;48.708;9.026;2022-10-04T15:45:00;16.70;99.90
15288;DHT22;7745;48.708;9.026;2022-10-04T15:47:33;16.60;99.90
15288;DHT22;7745;48.708;9.026;2022-10-04T15:50:19;16.60;99.90
15288;DHT22;7745;48.708;9.026;2022-10-04T15:53:15;16.60;99.90
15288;DHT22;7745;48.708;9.026;2022-10-04T15:56:03;16.50;99.90
15288;DHT22;7745;48.708;9.026;2022-10-04T15:58:45;16.50;99.90
15288;DHT22;7745;48.708;9.026;2022-10-04T16:04:33;16.40;99.90
15288;DHT22;7745;48.708;9.026;2022-10-04T16:07:28;16.40;99.90
15288;DHT22;7745;48.708;9.026;2022-10-04T16:10:06;16.30;99.90
15288;DHT22;7745;48.708;9.026;2022-10-04T16:12:53;16.20;99.90
15288;DHT22;7745;48.708;9.026;2022-10-04T16:15:30;16.10;99.90
15288;DHT22;7745;48.708;9.026;2022-10-04T16:18:16;16.10;99.90
15288;DHT22;7745;48.708;9.026;2022-10-04T16:21:04;16.00;99.90
15288;DHT22;7745;48.708;9.026;2022-10-04T16:23:40;15.90;99.90
15288;DHT22;7745;48.708;9.026;2022-10-04T16:26:09;15.80;99.90
15288;DHT22;7745;48.708;9.026;2022-10-04T16:29:04;15.70;99.90
15288;DHT22;7745;48.708;9.026;2022-10-04T16:31:49;15.70;99.90
15288;DHT22;7745;48.708;9.026;2022-10-04T16:34:43;15.60;99.90
15288;DHT22;7745;48.708;9.026;2022-10-04T16:37:24;15.60;99.90
15288;DHT22;7745;48.708;9.026;2022-10-04T16:39:55;15.50;99.90
15288;DHT22;7745;48.708;9.026;2022-10-04T16:42:47;15.40;99.90
15288;DHT22;7745;48.708;9.026;2022-10-04T16:45:39;15.40;99.90
15288;DHT22;7745;48.708;9.026;2022-10-04T16:48:19;15.30;99.90
15288;DHT22;7745;48.708;9.026;2022-10-04T16:53:48;15.20;99.90
15288;DHT22;7745;48.708;9.026;2022-10-04T16:56:20;15.10;99.90
15288;DHT22;7745;48.708;9.026;2022-10-04T16:58:56;15.00;99.90
15288;DHT22;7745;48.708;9.026;2022-10-04T17:04:37;14.90;99.90
15288;DHT22;7745;48.708;9.026;2022-10-04T17:07:13;14.80;99.90
15288;DHT22;7745;48.708;9.026;2022-10-04T17:09:48;14.70;99.90
15288;DHT22;7745;48.708;9.026;2022-10-04T17:12:24;14.60;99.90
15288;DHT22;7745;48.708;9.026;2022-10-04T17:15:08;14.50;99.90
15288;DHT22;7745;48.708;9.026;2022-10-04T17:17:47;14.40;99.90
15288;DHT22;7745;48.708;9.026;2022-10-04T17:20:24;14.40;99.90
15288;DHT22;7745;48.708;9.026;2022-10-04T17:23:09;14.20;99.90
15288;DHT22;7745;48.708;9.026;2022-10-04T17:25:43;14.10;99.90
15288;DHT22;7745;48.708;9.026;2022-10-04T17:28:23;14.10;99.90
15288;DHT22;7745;48.708;9.026;2022-10-04T17:30:59;13.90;99.90
15288;DHT22;7745;48.708;9.026;2022-10-04T17:33:35;13.80;99.90
15288;DHT22;7745;48.708;9.026;2022-10-04T17:36:23;13.80;99.90
15288;DHT22;7745;48.708;9.026;2022-10-04T17:39:01;13.50;99.90
15288;DHT22;7745;48.708;9.026;2022-10-04T17:41:46;13.50;99.90
15288;DHT22;7745;48.708;9.026;2022-10-04T17:44:43;13.40;99.90
15288;DHT22;7745;48.708;9.026;2022-10-04T17:47:16;13.40;99.90
15288;DHT22;7745;48.708;9.026;2022-10-04T17:49:53;13.40;99.90
15288;DHT22;7745;48.708;9.026;2022-10-04T17:52:44;13.30;99.90
15288;DHT22;7745;48.708;9.026;2022-10-04T17:55:42;13.30;99.90
15288;DHT22;7745;48.708;9.026;2022-10-04T17:58:15;13.30;99.90
15288;DHT22;7745;48.708;9.026;2022-10-04T18:00:56;13.20;99.90
15288;DHT22;7745;48.708;9.026;2022-10-04T18:03:32;13.20;99.90
15288;DHT22;7745;48.708;9.026;2022-10-04T18:06:12;13.30;99.90
15288;DHT22;7745;48.708;9.026;2022-10-04T18:08:45;13.30;99.90
15288;DHT22;7745;48.708;9.026;2022-10-04T18:11:21;13.30;99.90
15288;DHT22;7745;48.708;9.026;2022-10-04T18:13:56;13.30;99.90
15288;DHT22;7745;48.708;9.026;2022-10-04T18:16:28;13.20;99.90
15288;DHT22;7745;48.708;9.026;2022-10-04T18:18:56;13.20;99.90
15288;DHT22;7745;48.708;9.026;2022-10-04T18:21:28;13.10;99.90
15288;DHT22;7745;48.708;9.026;2022-10-04T18:23:57;13.00;99.90
15288;DHT22;7745;48.708;9.026;2022-10-04T18:26:27;12.90;99.90
15288;DHT22;7745;48.708;9.026;2022-10-04T18:28:58;12.80;99.90
15288;DHT22;7745;48.708;9.026;2022-10-04T18:31:30;12.70;99.90
15288;DHT22;7745;48.708;9.026;2022-10-04T18:34:01;12.60;99.90
15288;DHT22;7745;48.708;9.026;2022-10-04T18:36:47;12.50;99.90
15288;DHT22;7745;48.708;9.026;2022-10-04T18:39:18;12.40;99.90
15288;DHT22;7745;48.708;9.026;2022-10-04T18:41:57;12.40;99.90
15288;DHT22;7745;48.708;9.026;2022-10-04T18:44:28;12.30;99.90
15288;DHT22;7745;48.708;9.026;2022-10-04T18:47:15;12.30;99.90
15288;DHT22;7745;48.708;9.026;2022-10-04T18:49:48;12.20;99.90
15288;DHT22;7745;48.708;9.026;2022-10-04T18:52:24;12.10;99.90
15288;DHT22;7745;48.708;9.026;2022-10-04T18:55:03;12.10;99.90
15288;DHT22;7745;48.708;9.026;2022-10-04T18:57:37;12.10;99.90
15288;DHT22;7745;48.708;9.026;2022-10-04T19:00:20;12.00;99.90
15288;DHT22;7745;48.708;9.026;2022-10-04T19:03:12;12.00;99.90
15288;DHT22;7745;48.708;9.026;2022-10-04T19:05:46;12.00;99.90
15288;DHT22;7745;48.708;9.026;2022-10-04T19:08:29;11.90;99.90
15288;DHT22;7745;48.708;9.026;2022-10-04T19:11:02;11.90;99.90